Time;durP1;ratioP1;P1;durP2;ratioP2;P2;SDS_P1;SDS_P2;PMS_P1;PMS_P2;Temp;Humidity;BMP_temperature;BMP_pressure;BME280_temperature;BME280_humidity;BME280_pressure;Samples;Min_cycle;Max_cycle;Signal;HPM_P1;HPM_P2
2021/07/20 00:00:17;;;;;;;1.20;0.80;;;13.30;97.40;;;;;;5072435;28;20183;-72
2021/07/20 00:02:49;;;;;;;2.87;1.70;;;13.30;97.20;;;;;;5073888;28;20189;-66
2021/07/20 00:05:23;;;;;;;1.77;0.77;;;13.50;97.50;;;;;;5073264;28;20681;-67
2021/07/20 00:07:56;;;;;;;1.33;0.70;;;13.60;97.30;;;;;;5072270;28;20214;-73
2021/07/20 00:10:32;;;;;;;1.07;0.80;;;13.70;96.80;;;;;;5067332;28;20186;-74
2021/07/20 00:12:59;;;;;;;0.90;0.70;;;13.80;96.10;;;;;;5073624;28;20202;-77
2021/07/20 00:15:28;;;;;;;1.27;0.80;;;13.80;95.70;;;;;;5072395;28;20528;-72
2021/07/20 00:17:58;;;;;;;1.70;0.90;;;13.80;95.70;;;;;;5074610;28;20282;-69
2021/07/20 00:20:28;;;;;;;3.97;0.80;;;14.00;95.40;;;;;;5070236;28;20187;-71
2021/07/20 00:22:56;;;;;;;2.47;0.77;;;14.10;95.00;;;;;;5064611;28;20264;-71
2021/07/20 00:25:24;;;;;;;2.33;0.97;;;14.20;95.20;;;;;;5071934;28;20227;-72
2021/07/20 00:27:51;;;;;;;0.93;0.70;;;14.20;94.40;;;;;;5078150;28;20282;-73
2021/07/20 00:30:18;;;;;;;1.17;0.70;;;14.30;94.70;;;;;;5084891;28;20193;-68
2021/07/20 00:32:46;;;;;;;1.80;0.97;;;14.40;93.90;;;;;;5072627;28;20194;-69
2021/07/20 00:35:14;;;;;;;0.93;0.70;;;14.30;93.90;;;;;;5071373;28;20210;-66
2021/07/20 00:37:42;;;;;;;1.00;0.70;;;14.40;94.20;;;;;;5080380;28;20190;-67
2021/07/20 00:40:12;;;;;;;2.47;0.60;;;14.50;93.70;;;;;;5072556;28;20550;-71
2021/07/20 00:42:40;;;;;;;0.87;0.60;;;14.60;93.70;;;;;;5072944;28;20232;-67
2021/07/20 00:45:10;;;;;;;0.87;0.70;;;14.60;93.00;;;;;;5071365;28;20531;-66
2021/07/20 00:47:38;;;;;;;1.20;0.80;;;14.70;93.10;;;;;;5051881;28;20187;-72
2021/07/20 00:50:09;;;;;;;2.50;0.93;;;14.90;92.50;;;;;;5071631;28;20266;-63
2021/07/20 00:52:36;;;;;;;0.90;0.70;;;15.00;92.30;;;;;;5072141;28;20211;-66
2021/07/20 00:55:05;;;;;;;1.03;0.80;;;15.10;92.10;;;;;;5072343;28;20202;-71
2021/07/20 00:57:33;;;;;;;3.40;0.83;;;15.20;91.40;;;;;;5072828;28;20187;-72
2021/07/20 01:00:00;;;;;;;1.03;0.73;;;15.20;90.90;;;;;;5071344;28;20183;-69
2021/07/20 01:02:28;;;;;;;1.13;0.63;;;15.30;90.80;;;;;;5072164;28;20648;-67
2021/07/20 01:04:55;;;;;;;1.23;0.73;;;15.30;90.90;;;;;;5072295;28;20184;-64
2021/07/20 01:07:25;;;;;;;1.70;0.70;;;15.40;90.20;;;;;;5057179;28;20634;-74
2021/07/20 01:09:53;;;;;;;0.70;0.70;;;15.50;89.60;;;;;;5064678;28;20242;-71
2021/07/20 01:12:22;;;;;;;0.83;0.53;;;15.40;88.80;;;;;;5072450;28;20175;-72
2021/07/20 01:14:51;;;;;;;0.70;0.70;;;15.40;88.60;;;;;;5056903;28;20603;-71
2021/07/20 01:17:21;;;;;;;4.63;0.73;;;15.30;87.20;;;;;;5071441;28;20595;-70
2021/07/20 01:19:53;;;;;;;2.00;0.70;;;15.30;88.20;;;;;;5071884;28;20183;-65
2021/07/20 01:22:36;;;;;;;2.30;0.60;;;15.30;87.70;;;;;;5072125;28;20261;-71
2021/07/20 01:25:11;;;;;;;2.30;0.70;;;15.50;88.40;;;;;;5073273;28;20234;-71
2021/07/20 01:27:47;;;;;;;1.27;0.63;;;15.60;88.00;;;;;;5069696;28;20236;-65
2021/07/20 01:30:16;;;;;;;1.27;0.57;;;15.70;87.60;;;;;;5071922;28;20265;-68
2021/07/20 01:32:44;;;;;;;1.67;0.90;;;15.80;87.00;;;;;;5075432;28;20590;-71
2021/07/20 01:35:13;;;;;;;1.27;0.70;;;15.90;86.70;;;;;;5074896;28;20680;-71
2021/07/20 01:37:43;;;;;;;1.03;0.60;;;15.90;86.50;;;;;;5065755;28;20218;-68
2021/07/20 01:40:12;;;;;;;1.40;0.80;;;16.00;86.50;;;;;;5082397;28;20271;-73
2021/07/20 01:42:44;;;;;;;1.63;0.70;;;16.20;84.80;;;;;;5073877;28;20275;-62
2021/07/20 01:45:12;;;;;;;0.93;0.60;;;16.20;85.30;;;;;;5072396;28;20202;-70
2021/07/20 01:47:43;;;;;;;1.83;0.50;;;16.30;85.90;;;;;;5075079;28;20655;-70
2021/07/20 01:50:11;;;;;;;3.60;0.60;;;16.30;85.70;;;;;;5072265;28;20189;-65
2021/07/20 01:52:39;;;;;;;4.10;0.70;;;16.30;84.20;;;;;;5074573;28;20662;-72
2021/07/20 01:55:07;;;;;;;1.17;0.60;;;16.20;83.80;;;;;;5072960;28;20295;-64
2021/07/20 01:57:34;;;;;;;1.87;0.50;;;16.10;85.00;;;;;;5074956;28;20244;-66
2021/07/20 02:00:05;;;;;;;3.20;0.53;;;16.30;83.30;;;;;;5074445;28;20772;-66
2021/07/20 02:02:37;;;;;;;1.63;0.63;;;16.40;84.60;;;;;;5082026;28;20321;-68
2021/07/20 02:10:42;;;;;;;1.70;0.60;;;16.00;85.60;;;;;;5078637;28;20244;-66
2021/07/20 02:13:13;;;;;;;1.73;0.67;;;16.00;83.80;;;;;;5075437;28;20214;-63
2021/07/20 02:15:41;;;;;;;1.07;0.50;;;16.00;84.60;;;;;;5069575;28;20211;-65
2021/07/20 02:18:11;;;;;;;1.67;0.60;;;15.90;84.00;;;;;;5074320;28;20635;-63
2021/07/20 02:20:40;;;;;;;2.00;0.43;;;15.90;84.40;;;;;;5068835;28;20186;-70
2021/07/20 02:23:09;;;;;;;1.27;0.70;;;15.90;83.90;;;;;;5063975;28;20580;-69
2021/07/20 02:25:40;;;;;;;0.60;0.60;;;16.00;85.00;;;;;;5075488;28;20708;-69
2021/07/20 02:28:09;;;;;;;0.40;0.40;;;16.10;84.20;;;;;;5058976;28;20180;-71
2021/07/20 02:30:37;;;;;;;0.50;0.50;;;16.00;83.90;;;;;;5057121;28;20183;-69
2021/07/20 02:33:06;;;;;;;4.80;0.70;;;16.00;84.30;;;;;;5073928;28;20653;-72
2021/07/20 02:35:34;;;;;;;0.67;0.50;;;15.90;84.40;;;;;;5074948;28;20203;-74
2021/07/20 02:38:02;;;;;;;2.77;0.63;;;15.90;84.70;;;;;;5074033;28;20324;-77
2021/07/20 02:40:30;;;;;;;0.50;0.50;;;15.90;85.50;;;;;;5073581;28;20203;-77
2021/07/20 02:42:59;;;;;;;2.33;0.50;;;15.90;86.20;;;;;;5074710;28;20267;-76
2021/07/20 02:45:32;;;;;;;1.23;0.60;;;15.90;85.70;;;;;;5074165;28;20187;-73
2021/07/20 02:48:00;;;;;;;0.57;0.50;;;15.90;87.40;;;;;;5072650;28;20174;-70
2021/07/20 02:50:29;;;;;;;0.53;0.50;;;15.80;86.50;;;;;;5074025;28;20211;-71
2021/07/20 02:52:58;;;;;;;1.37;0.40;;;15.80;87.80;;;;;;5073568;28;20192;-67
2021/07/20 02:55:27;;;;;;;0.50;0.50;;;15.90;87.10;;;;;;5075588;28;20578;-67
2021/07/20 02:57:55;;;;;;;1.97;0.57;;;15.90;87.80;;;;;;5074120;28;20181;-67
2021/07/20 03:00:23;;;;;;;0.93;0.60;;;15.90;88.60;;;;;;5074319;28;20247;-74
2021/07/20 03:02:51;;;;;;;0.87;0.70;;;15.90;88.40;;;;;;5073444;28;20626;-72
2021/07/20 03:05:19;;;;;;;0.67;0.53;;;15.80;88.30;;;;;;5074669;28;20203;-65
2021/07/20 03:07:56;;;;;;;1.10;0.60;;;15.70;88.50;;;;;;5068996;28;20179;-75
2021/07/20 03:10:29;;;;;;;0.60;0.60;;;15.70;89.60;;;;;;5073857;28;20176;-76
2021/07/20 03:13:02;;;;;;;0.63;0.57;;;15.70;90.20;;;;;;5071836;28;20192;-73
2021/07/20 03:15:32;;;;;;;1.30;0.60;;;15.80;90.50;;;;;;5073674;28;20211;-72
2021/07/20 03:18:03;;;;;;;0.93;0.50;;;15.60;90.40;;;;;;5073751;28;20640;-67
2021/07/20 03:20:32;;;;;;;1.90;0.63;;;15.50;90.30;;;;;;5074064;28;20181;-74
2021/07/20 03:23:01;;;;;;;0.87;0.60;;;15.40;90.50;;;;;;5073442;28;20173;-64
2021/07/20 03:25:30;;;;;;;2.17;0.60;;;15.40;90.80;;;;;;5073844;28;20571;-71
2021/07/20 03:28:00;;;;;;;0.87;0.60;;;15.40;90.90;;;;;;5074271;28;20171;-80
2021/07/20 03:30:32;;;;;;;0.93;0.53;;;15.30;90.70;;;;;;5073671;28;20520;-73
2021/07/20 03:33:01;;;;;;;0.50;0.40;;;15.30;91.00;;;;;;5072283;28;20183;-65
2021/07/20 03:35:29;;;;;;;1.60;0.80;;;15.20;91.10;;;;;;5070160;28;20199;-66
2021/07/20 03:37:57;;;;;;;0.50;0.50;;;15.20;91.60;;;;;;5072897;28;20520;-73
2021/07/20 03:40:26;;;;;;;2.17;0.40;;;15.30;91.70;;;;;;5073401;28;20183;-72
2021/07/20 03:42:55;;;;;;;1.60;1.07;;;15.30;91.40;;;;;;5072554;28;20185;-73
2021/07/20 03:45:24;;;;;;;1.00;0.60;;;15.20;91.80;;;;;;5073845;28;20671;-72
2021/07/20 03:47:51;;;;;;;0.77;0.50;;;15.20;92.00;;;;;;5072973;28;20171;-75
2021/07/20 03:50:20;;;;;;;0.87;0.70;;;15.20;91.70;;;;;;5072300;28;20175;-71
2021/07/20 03:52:49;;;;;;;2.17;0.67;;;15.20;92.10;;;;;;5074499;28;20175;-72
2021/07/20 03:55:18;;;;;;;0.93;0.50;;;15.20;92.10;;;;;;5073424;28;20220;-73
2021/07/20 03:57:47;;;;;;;0.70;0.50;;;15.10;92.20;;;;;;5073015;28;20553;-76
2021/07/20 04:00:16;;;;;;;0.63;0.50;;;15.20;92.60;;;;;;5073802;28;20190;-78
2021/07/20 04:02:49;;;;;;;1.40;0.60;;;15.10;93.00;;;;;;5073183;28;20245;-66
2021/07/20 04:05:18;;;;;;;1.90;0.60;;;15.10;93.00;;;;;;5073415;28;20177;-64
2021/07/20 04:07:48;;;;;;;1.23;0.60;;;15.00;93.50;;;;;;5079240;28;20268;-67
2021/07/20 04:10:16;;;;;;;1.33;0.60;;;15.00;93.70;;;;;;5074049;28;20275;-61
2021/07/20 04:12:44;;;;;;;1.43;0.60;;;15.00;93.90;;;;;;5073223;28;20167;-77
2021/07/20 04:15:15;;;;;;;0.90;0.60;;;14.90;94.00;;;;;;5070141;28;20545;-73
2021/07/20 04:17:43;;;;;;;0.67;0.60;;;14.90;94.30;;;;;;5072283;28;20226;-72
2021/07/20 04:20:13;;;;;;;1.37;1.03;;;14.90;94.60;;;;;;5066949;28;20195;-72
2021/07/20 04:22:42;;;;;;;0.60;0.50;;;14.90;94.60;;;;;;5053760;28;20594;-73
2021/07/20 04:25:11;;;;;;;1.17;0.53;;;14.80;94.80;;;;;;5078344;28;20224;-75
2021/07/20 04:27:40;;;;;;;0.70;0.60;;;14.80;94.90;;;;;;5070048;28;20175;-76
2021/07/20 04:30:09;;;;;;;0.70;0.50;;;14.80;95.10;;;;;;5063181;28;20221;-75
2021/07/20 04:32:46;;;;;;;2.50;0.60;;;14.80;95.40;;;;;;5084913;28;20178;-75
2021/07/20 04:35:16;;;;;;;0.70;0.60;;;14.80;95.50;;;;;;5051804;28;20674;-73
2021/07/20 04:37:44;;;;;;;0.93;0.50;;;14.80;95.50;;;;;;5067415;28;20263;-75
2021/07/20 04:40:14;;;;;;;1.93;0.60;;;14.80;95.60;;;;;;5091661;28;20547;-67
2021/07/20 04:42:42;;;;;;;0.50;0.50;;;14.90;95.50;;;;;;5086801;28;20213;-75
2021/07/20 04:45:11;;;;;;;2.30;0.60;;;14.90;95.30;;;;;;5074242;28;20184;-77
2021/07/20 04:47:41;;;;;;;1.13;0.50;;;14.80;95.50;;;;;;5062267;28;20186;-74
2021/07/20 04:50:12;;;;;;;1.77;0.70;;;14.80;95.70;;;;;;5053276;28;20614;-71
2021/07/20 04:52:40;;;;;;;1.20;0.70;;;14.70;95.40;;;;;;5063243;28;20176;-70
2021/07/20 04:55:09;;;;;;;1.30;0.60;;;14.70;95.60;;;;;;5080285;28;20195;-64
2021/07/20 04:57:37;;;;;;;0.80;0.53;;;14.70;96.00;;;;;;5077834;28;20179;-75
2021/07/20 05:00:08;;;;;;;1.03;0.67;;;14.70;95.90;;;;;;5072064;28;20160;-78
2021/07/20 05:02:44;;;;;;;1.03;0.60;;;14.60;95.60;;;;;;5070438;28;20199;-78
2021/07/20 05:05:22;;;;;;;5.03;0.60;;;14.70;95.40;;;;;;5069523;28;20189;-70
2021/07/20 05:07:54;;;;;;;1.27;0.50;;;14.70;96.00;;;;;;5074207;28;20249;-63
2021/07/20 05:10:22;;;;;;;0.87;0.50;;;14.60;95.70;;;;;;5044554;28;20188;-61
2021/07/20 05:12:50;;;;;;;8.87;0.80;;;14.60;95.90;;;;;;5069193;28;20270;-64
2021/07/20 05:15:19;;;;;;;0.60;0.50;;;14.70;95.90;;;;;;5067839;28;20554;-69
2021/07/20 05:17:48;;;;;;;2.37;0.60;;;14.70;95.90;;;;;;5072317;28;20187;-72
2021/07/20 05:20:18;;;;;;;0.90;0.60;;;14.70;95.80;;;;;;5072160;28;20186;-70
2021/07/20 05:22:47;;;;;;;1.10;0.70;;;14.70;95.80;;;;;;5071753;28;20198;-76
2021/07/20 05:25:14;;;;;;;0.63;0.50;;;14.70;95.70;;;;;;5072249;28;20298;-70
2021/07/20 05:27:47;;;;;;;1.27;0.50;;;14.80;95.70;;;;;;5072427;28;20713;-75
2021/07/20 05:30:14;;;;;;;0.97;0.70;;;14.80;95.60;;;;;;5072173;28;20171;-75
2021/07/20 05:32:44;;;;;;;0.90;0.80;;;14.80;95.80;;;;;;5073191;28;20183;-70
2021/07/20 05:35:14;;;;;;;0.53;0.50;;;14.80;95.50;;;;;;5068556;28;20206;-72
2021/07/20 05:37:42;;;;;;;0.87;0.67;;;14.80;95.60;;;;;;5070460;28;20615;-71
2021/07/20 05:40:16;;;;;;;1.53;0.80;;;15.00;95.20;;;;;;5067685;28;20277;-70
2021/07/20 05:42:45;;;;;;;1.73;0.90;;;15.40;94.80;;;;;;5074335;28;20198;-76
2021/07/20 05:45:14;;;;;;;1.80;0.67;;;15.70;94.00;;;;;;5064879;28;20214;-71
2021/07/20 05:47:46;;;;;;;0.83;0.60;;;15.50;94.50;;;;;;5070957;28;20269;-69
2021/07/20 05:50:15;;;;;;;0.93;0.70;;;15.20;95.20;;;;;;5075030;28;20187;-71
2021/07/20 05:52:45;;;;;;;1.67;0.60;;;15.00;95.60;;;;;;5071108;28;20184;-66
2021/07/20 05:55:14;;;;;;;0.93;0.60;;;14.90;95.80;;;;;;5072282;28;20261;-71
2021/07/20 05:57:45;;;;;;;0.60;0.60;;;14.90;95.80;;;;;;5070875;28;20192;-68
2021/07/20 06:00:21;;;;;;;1.43;0.80;;;14.80;96.10;;;;;;5068797;28;20281;-74
2021/07/20 06:02:49;;;;;;;1.67;0.93;;;14.80;96.20;;;;;;5066880;28;20693;-68
2021/07/20 06:05:17;;;;;;;2.03;0.90;;;14.80;96.60;;;;;;5071100;28;20197;-73
2021/07/20 06:07:45;;;;;;;3.63;0.93;;;14.90;96.30;;;;;;5069275;28;20190;-76
2021/07/20 06:10:18;;;;;;;5.67;1.03;;;14.90;96.30;;;;;;5071331;28;20274;-70
2021/07/20 06:12:47;;;;;;;1.23;0.80;;;15.10;95.90;;;;;;5070635;28;20195;-67
2021/07/20 06:15:15;;;;;;;1.30;0.80;;;15.10;95.80;;;;;;5073719;28;20706;-69
2021/07/20 06:17:42;;;;;;;1.57;1.00;;;15.30;95.70;;;;;;5074470;28;20207;-70
2021/07/20 06:20:10;;;;;;;1.70;0.77;;;15.40;95.60;;;;;;5074314;28;20183;-74
2021/07/20 06:22:43;;;;;;;2.60;0.90;;;15.40;95.70;;;;;;5069664;28;20183;-73
2021/07/20 06:25:14;;;;;;;1.13;0.70;;;15.40;95.50;;;;;;5074058;28;20263;-68
2021/07/20 06:27:42;;;;;;;1.60;0.70;;;15.50;95.30;;;;;;5074218;28;20222;-73
2021/07/20 06:30:12;;;;;;;1.90;1.00;;;15.30;95.60;;;;;;5071178;28;20187;-68
2021/07/20 06:32:40;;;;;;;2.30;0.87;;;15.20;95.90;;;;;;5073837;28;20659;-68
2021/07/20 06:35:12;;;;;;;2.77;1.00;;;15.10;96.00;;;;;;5074209;28;20211;-70
2021/07/20 06:37:43;;;;;;;2.53;0.90;;;15.00;96.40;;;;;;5070256;28;20688;-71
2021/07/20 06:40:15;;;;;;;3.23;0.90;;;14.90;96.50;;;;;;5066911;28;20176;-69
2021/07/20 06:42:44;;;;;;;1.97;1.10;;;14.80;96.70;;;;;;5066527;28;20185;-70
2021/07/20 06:45:15;;;;;;;1.40;1.00;;;14.80;96.90;;;;;;5059935;28;20172;-71
2021/07/20 06:47:45;;;;;;;1.13;0.90;;;14.80;96.80;;;;;;5088971;28;20183;-61
2021/07/20 06:50:17;;;;;;;2.93;0.83;;;14.80;96.80;;;;;;5072066;28;20183;-64
2021/07/20 06:52:46;;;;;;;2.07;0.90;;;14.70;97.10;;;;;;5062342;28;20179;-72
2021/07/20 06:55:14;;;;;;;4.30;0.90;;;14.70;97.00;;;;;;5067034;28;20211;-73
2021/07/20 06:57:45;;;;;;;1.00;0.80;;;14.70;97.10;;;;;;5077715;28;20200;-68
2021/07/20 07:00:15;;;;;;;4.40;0.90;;;14.70;97.20;;;;;;5076508;28;20176;-62
2021/07/20 07:02:44;;;;;;;1.30;0.60;;;14.60;97.40;;;;;;5067693;28;20192;-68
2021/07/20 07:05:14;;;;;;;6.97;0.90;;;14.60;97.50;;;;;;5086050;28;20175;-73
2021/07/20 07:07:42;;;;;;;2.60;0.97;;;14.50;98.00;;;;;;5082224;28;20175;-74
2021/07/20 07:10:13;;;;;;;2.00;1.10;;;14.50;98.30;;;;;;5071360;28;20190;-65
2021/07/20 07:12:41;;;;;;;1.90;1.20;;;14.40;98.40;;;;;;5082127;28;20262;-63
2021/07/20 07:15:09;;;;;;;1.23;0.93;;;14.40;98.40;;;;;;5080898;28;20257;-66
2021/07/20 07:17:38;;;;;;;4.13;1.03;;;14.40;98.50;;;;;;5063254;28;20180;-70
2021/07/20 07:20:25;;;;;;;4.63;1.10;;;14.40;98.70;;;;;;5067099;28;20273;-69
2021/07/20 07:22:54;;;;;;;1.27;1.10;;;14.30;98.80;;;;;;5059189;28;20183;-69
2021/07/20 07:25:22;;;;;;;0.93;0.90;;;14.30;98.90;;;;;;5071922;28;20228;-65
2021/07/20 07:27:53;;;;;;;2.40;1.10;;;14.30;99.00;;;;;;5073483;28;20180;-67
2021/07/20 07:30:21;;;;;;;1.27;1.00;;;14.30;99.20;;;;;;5073445;28;20229;-73
2021/07/20 07:32:49;;;;;;;3.80;1.30;;;14.30;99.20;;;;;;5073803;28;20261;-67
2021/07/20 07:35:17;;;;;;;1.37;1.03;;;14.30;99.30;;;;;;5058621;28;20247;-71
2021/07/20 07:37:45;;;;;;;3.13;1.53;;;14.30;99.20;;;;;;5071857;28;20241;-68
2021/07/20 07:40:14;;;;;;;1.60;1.27;;;14.30;99.30;;;;;;5071455;28;20171;-65
2021/07/20 07:42:43;;;;;;;3.33;1.33;;;14.20;99.50;;;;;;5073763;28;20591;-67
2021/07/20 07:45:13;;;;;;;1.73;1.10;;;14.20;99.60;;;;;;5073403;28;20186;-67
2021/07/20 07:47:43;;;;;;;1.67;1.30;;;14.20;99.50;;;;;;5081181;28;20269;-68
2021/07/20 07:50:11;;;;;;;1.67;1.20;;;14.20;99.60;;;;;;5090699;28;20677;-63
2021/07/20 07:52:41;;;;;;;1.77;1.27;;;14.20;99.60;;;;;;5066671;28;20251;-66
2021/07/20 07:55:09;;;;;;;1.77;1.30;;;14.20;99.30;;;;;;5073515;28;20171;-68
2021/07/20 07:57:39;;;;;;;1.63;1.10;;;14.20;99.50;;;;;;5073159;28;20253;-62
2021/07/20 08:00:09;;;;;;;1.17;0.93;;;14.30;99.30;;;;;;5056063;28;20538;-66
2021/07/20 08:02:39;;;;;;;2.87;1.37;;;14.30;99.40;;;;;;5076692;28;20191;-68
2021/07/20 08:05:08;;;;;;;3.00;1.40;;;14.30;99.40;;;;;;5073407;28;20186;-66
2021/07/20 08:07:37;;;;;;;2.37;1.40;;;14.20;99.40;;;;;;5066224;28;20222;-67
2021/07/20 08:10:06;;;;;;;3.60;1.40;;;14.20;99.40;;;;;;5072946;28;20278;-71
2021/07/20 08:12:35;;;;;;;1.13;1.03;;;14.20;99.60;;;;;;5073265;28;20179;-73
2021/07/20 08:15:02;;;;;;;1.97;1.00;;;14.10;99.50;;;;;;5073079;28;20175;-70
2021/07/20 08:17:32;;;;;;;2.33;1.20;;;14.10;99.40;;;;;;5073171;28;20191;-66
2021/07/20 08:20:00;;;;;;;1.60;1.10;;;14.10;99.20;;;;;;5072628;28;20187;-66
2021/07/20 08:22:30;;;;;;;1.80;1.00;;;14.10;98.90;;;;;;5081379;28;20180;-63
2021/07/20 08:25:10;;;;;;;1.20;1.00;;;14.10;99.10;;;;;;5072859;28;20231;-72
2021/07/20 08:27:42;;;;;;;1.63;1.10;;;14.10;99.10;;;;;;5073249;28;20183;-70
2021/07/20 08:30:09;;;;;;;1.23;1.03;;;14.10;99.10;;;;;;5073035;28;20522;-72
2021/07/20 08:32:51;;;;;;;5.50;1.50;;;14.10;99.30;;;;;;5072905;28;20187;-73
2021/07/20 08:35:22;;;;;;;1.10;0.97;;;14.10;99.30;;;;;;5073266;28;20214;-63
2021/07/20 08:37:52;;;;;;;3.40;1.20;;;14.00;99.40;;;;;;5073818;28;20209;-71
2021/07/20 08:40:38;;;;;;;1.67;1.10;;;14.00;99.30;;;;;;5071773;28;20634;-63
2021/07/20 08:43:41;;;;;;;2.40;1.20;;;14.00;99.10;;;;;;5073391;28;20512;-65
2021/07/20 08:46:24;;;;;;;1.20;1.00;;;13.90;98.90;;;;;;5086594;28;20189;-64
2021/07/20 08:48:54;;;;;;;1.43;1.10;;;13.90;99.10;;;;;;5072619;28;20566;-62
2021/07/20 08:51:48;;;;;;;3.47;1.00;;;13.90;98.90;;;;;;5072540;28;20515;-65
2021/07/20 08:54:40;;;;;;;3.67;1.43;;;13.90;99.00;;;;;;5072523;28;20189;-71
2021/07/20 08:57:12;;;;;;;1.13;1.00;;;13.80;98.80;;;;;;5086793;28;20217;-68
2021/07/20 08:59:59;;;;;;;1.60;0.70;;;13.80;98.80;;;;;;5074082;28;20609;-66
2021/07/20 09:02:38;;;;;;;3.80;0.90;;;13.80;99.00;;;;;;5073549;28;20229;-66
2021/07/20 09:05:14;;;;;;;0.93;0.80;;;13.80;98.90;;;;;;5072854;28;20629;-68
2021/07/20 09:07:54;;;;;;;2.90;1.30;;;13.70;99.00;;;;;;5072510;28;20183;-74
2021/07/20 09:10:23;;;;;;;3.30;1.00;;;13.70;99.00;;;;;;5072254;28;20174;-69
2021/07/20 09:12:52;;;;;;;1.17;0.83;;;13.70;99.20;;;;;;5072440;28;20248;-79
2021/07/20 09:15:21;;;;;;;2.83;1.10;;;13.60;99.40;;;;;;5061008;28;20522;-68
2021/07/20 09:18:18;;;;;;;2.83;1.40;;;13.60;99.50;;;;;;5054223;28;20184;-77
2021/07/20 09:20:50;;;;;;;1.77;0.90;;;13.50;99.80;;;;;;5092340;28;20182;-69
2021/07/20 09:23:21;;;;;;;2.60;1.10;;;13.40;99.90;;;;;;5069073;28;20616;-65
2021/07/20 09:26:09;;;;;;;1.00;0.90;;;13.40;99.90;;;;;;5072820;28;20268;-78
2021/07/20 09:28:41;;;;;;;2.50;1.00;;;13.40;99.90;;;;;;5091744;28;20179;-75
2021/07/20 09:31:21;;;;;;;2.83;1.23;;;13.30;99.90;;;;;;5073979;28;20270;-79
2021/07/20 09:34:05;;;;;;;4.23;1.37;;;13.30;99.90;;;;;;5059680;28;20182;-74
2021/07/20 09:36:47;;;;;;;3.10;1.60;;;13.30;99.90;;;;;;5065701;28;20215;-82
2021/07/20 09:39:34;;;;;;;2.00;1.57;;;13.30;99.90;;;;;;5062258;28;20187;-76
2021/07/20 09:42:27;;;;;;;2.67;1.50;;;13.20;99.90;;;;;;5090191;28;20175;-83
2021/07/20 09:45:03;;;;;;;1.60;1.40;;;13.30;99.90;;;;;;5079383;28;20179;-72
2021/07/20 09:47:55;;;;;;;3.30;2.07;;;13.30;99.90;;;;;;5071171;28;20191;-73
2021/07/20 09:50:24;;;;;;;4.17;2.17;;;13.30;99.90;;;;;;5080115;28;20277;-73
2021/07/20 09:53:03;;;;;;;3.43;2.10;;;13.20;99.90;;;;;;5061158;28;20786;-71
2021/07/20 09:55:52;;;;;;;2.67;1.60;;;13.20;99.90;;;;;;5076104;28;20240;-72
2021/07/20 09:58:25;;;;;;;3.17;2.00;;;13.20;99.90;;;;;;5084668;28;20179;-75
2021/07/20 10:01:14;;;;;;;2.10;1.57;;;13.20;99.90;;;;;;5075295;28;20515;-65
2021/07/20 10:04:00;;;;;;;2.97;1.77;;;13.20;99.90;;;;;;5075559;28;20187;-82
2021/07/20 10:06:41;;;;;;;5.00;1.73;;;13.10;99.90;;;;;;5065079;28;20203;-75
2021/07/20 10:09:45;;;;;;;2.80;2.20;;;13.10;99.90;;;;;;5061999;28;20180;-69
2021/07/20 10:12:49;;;;;;;5.17;2.40;;;13.10;99.90;;;;;;5068762;28;20186;-73
2021/07/20 10:15:20;;;;;;;2.73;1.60;;;13.00;99.90;;;;;;5066545;28;20556;-73
2021/07/20 10:17:53;;;;;;;3.37;2.30;;;13.00;99.90;;;;;;5075057;28;20183;-65
2021/07/20 10:20:23;;;;;;;3.40;2.33;;;13.00;99.90;;;;;;5073492;28;20634;-72
2021/07/20 10:22:53;;;;;;;1.93;1.77;;;13.00;99.90;;;;;;5067886;28;20272;-72
2021/07/20 10:25:49;;;;;;;3.07;2.10;;;13.00;99.90;;;;;;5068337;28;20219;-64
2021/07/20 10:28:48;;;;;;;3.00;2.10;;;13.00;99.90;;;;;;5069823;28;20180;-73
2021/07/20 10:31:30;;;;;;;4.40;2.60;;;12.90;99.90;;;;;;5073060;28;20279;-62
2021/07/20 10:34:09;;;;;;;3.23;2.20;;;12.90;99.90;;;;;;5075110;28;20262;-80
2021/07/20 10:36:46;;;;;;;4.73;2.57;;;12.90;99.90;;;;;;5065655;28;20218;-79
2021/07/20 10:39:20;;;;;;;4.63;2.60;;;12.90;99.90;;;;;;5073594;28;20519;-83
2021/07/20 10:41:53;;;;;;;4.97;2.23;;;12.80;99.90;;;;;;5072930;28;20234;-69
2021/07/20 10:44:53;;;;;;;3.27;2.03;;;12.80;99.90;;;;;;5074462;28;20500;-82
2021/07/20 10:47:28;;;;;;;6.20;2.40;;;12.80;99.90;;;;;;5078326;28;20187;-72
2021/07/20 10:50:07;;;;;;;2.00;1.60;;;12.80;99.90;;;;;;5075664;28;20185;-78
2021/07/20 10:52:40;;;;;;;3.13;2.00;;;12.80;99.90;;;;;;5070236;28;20175;-73
2021/07/20 10:55:16;;;;;;;2.27;1.80;;;12.80;99.90;;;;;;5073280;28;20190;-78
2021/07/20 10:57:58;;;;;;;2.37;1.90;;;12.80;99.90;;;;;;5071136;28;20554;-77
2021/07/20 11:00:33;;;;;;;3.07;1.73;;;12.80;99.90;;;;;;5073140;28;20187;-80
2021/07/20 11:03:27;;;;;;;1.80;1.60;;;12.80;99.90;;;;;;5083454;28;20273;-71
2021/07/20 11:05:55;;;;;;;1.87;1.30;;;12.80;99.90;;;;;;5074447;28;20187;-79
2021/07/20 11:08:23;;;;;;;1.87;1.33;;;12.80;99.90;;;;;;5074253;28;20187;-75
2021/07/20 11:10:54;;;;;;;4.10;2.37;;;12.80;99.90;;;;;;5074405;28;20187;-82
2021/07/20 11:13:33;;;;;;;3.80;2.10;;;12.80;99.90;;;;;;5074357;28;20182;-71
2021/07/20 11:16:04;;;;;;;2.03;1.47;;;12.80;99.90;;;;;;5081307;28;20199;-68
2021/07/20 11:18:35;;;;;;;3.13;1.60;;;12.80;99.90;;;;;;5074722;28;20233;-74
2021/07/20 11:21:04;;;;;;;2.33;1.53;;;12.80;99.90;;;;;;5074303;28;20182;-73
2021/07/20 11:23:50;;;;;;;1.63;1.47;;;12.80;99.90;;;;;;5070071;28;20183;-73
2021/07/20 11:26:19;;;;;;;1.93;1.40;;;12.80;99.90;;;;;;5072441;28;20187;-80
2021/07/20 11:28:48;;;;;;;2.30;1.60;;;12.80;99.90;;;;;;5073614;28;20183;-77
2021/07/20 11:31:46;;;;;;;1.90;1.10;;;12.80;99.90;;;;;;5082716;28;20229;-72
2021/07/20 11:34:24;;;;;;;1.70;1.40;;;12.80;99.90;;;;;;5072952;28;20714;-79
2021/07/20 11:36:55;;;;;;;1.70;1.30;;;12.80;99.90;;;;;;5068898;28;20692;-82
2021/07/20 11:39:27;;;;;;;2.20;1.30;;;12.80;99.90;;;;;;5069015;28;20663;-74
2021/07/20 11:42:07;;;;;;;4.60;1.47;;;12.80;99.90;;;;;;5068833;28;20171;-75
2021/07/20 11:44:38;;;;;;;1.20;1.10;;;12.70;99.90;;;;;;5076094;28;20179;-75
2021/07/20 11:47:16;;;;;;;2.43;1.70;;;12.70;99.90;;;;;;5078536;28;20183;-72
2021/07/20 11:50:11;;;;;;;3.23;1.53;;;12.70;99.90;;;;;;5071399;28;20182;-74
2021/07/20 11:53:11;;;;;;;1.80;1.20;;;12.70;99.90;;;;;;5072920;28;20529;-76
2021/07/20 11:56:03;;;;;;;1.63;1.33;;;12.70;99.90;;;;;;5062305;28;20310;-79
2021/07/20 11:59:09;;;;;;;1.70;1.07;;;12.70;99.90;;;;;;5061954;28;20188;-75
2021/07/20 12:01:40;;;;;;;2.00;1.00;;;12.70;99.90;;;;;;5071108;28;20514;-85
2021/07/20 12:04:25;;;;;;;1.70;1.10;;;12.70;99.90;;;;;;5067430;28;20213;-81
2021/07/20 12:07:09;;;;;;;1.83;0.83;;;12.70;99.90;;;;;;5063486;28;20206;-73
2021/07/20 12:09:48;;;;;;;1.03;0.80;;;12.70;99.90;;;;;;5072243;28;20542;-80
2021/07/20 12:12:18;;;;;;;1.77;1.00;;;12.70;99.90;;;;;;5069503;28;20178;-75
2021/07/20 12:14:46;;;;;;;1.43;0.97;;;12.60;99.90;;;;;;5055165;28;20282;-71
2021/07/20 12:17:18;;;;;;;1.00;0.83;;;12.50;99.90;;;;;;5070685;28;20207;-77
2021/07/20 12:19:46;;;;;;;1.47;1.10;;;12.30;99.90;;;;;;5072411;28;20189;-77
2021/07/20 12:22:14;;;;;;;1.50;1.10;;;12.10;99.90;;;;;;5066778;28;20698;-64
2021/07/20 12:24:41;;;;;;;0.80;0.80;;;12.00;99.90;;;;;;5072965;28;20223;-75
2021/07/20 12:27:10;;;;;;;1.10;1.00;;;11.90;99.90;;;;;;5073419;28;20175;-79
2021/07/20 12:29:43;;;;;;;0.90;0.90;;;11.90;99.90;;;;;;5083949;28;20190;-61
2021/07/20 12:32:17;;;;;;;1.00;0.90;;;11.80;99.90;;;;;;5073374;28;21071;-66
2021/07/20 12:34:51;;;;;;;2.07;1.13;;;11.80;99.90;;;;;;5055563;28;20197;-74
2021/07/20 12:37:22;;;;;;;1.60;1.10;;;11.70;99.90;;;;;;5072346;28;20214;-76
2021/07/20 12:39:50;;;;;;;1.57;1.20;;;11.70;99.90;;;;;;5071021;28;20652;-71
2021/07/20 12:42:18;;;;;;;1.63;1.27;;;11.70;99.90;;;;;;5077168;28;20580;-77
2021/07/20 12:45:04;;;;;;;2.03;1.30;;;11.70;99.90;;;;;;5073102;28;20266;-69
2021/07/20 12:47:45;;;;;;;3.80;1.27;;;11.80;99.90;;;;;;5071560;28;20231;-73
2021/07/20 12:50:15;;;;;;;2.27;1.50;;;11.80;99.90;;;;;;5072519;28;20265;-69
2021/07/20 12:52:45;;;;;;;1.57;1.20;;;11.70;99.90;;;;;;5065302;28;20191;-74
2021/07/20 12:55:14;;;;;;;4.23;1.33;;;11.70;99.90;;;;;;5066957;28;20206;-75
2021/07/20 12:57:58;;;;;;;2.30;1.50;;;11.60;99.90;;;;;;5070463;28;20191;-66
2021/07/20 13:00:28;;;;;;;4.10;1.67;;;11.50;99.90;;;;;;5072728;28;20199;-65
2021/07/20 13:03:00;;;;;;;2.10;1.30;;;11.50;99.90;;;;;;5072482;28;20187;-72
2021/07/20 13:05:29;;;;;;;3.70;1.30;;;11.40;99.90;;;;;;5072240;28;20186;-66
2021/07/20 13:08:01;;;;;;;3.63;1.37;;;11.40;99.90;;;;;;5059796;28;20175;-79
2021/07/20 13:10:32;;;;;;;2.83;1.53;;;11.30;99.90;;;;;;5072597;28;20221;-73
2021/07/20 13:13:07;;;;;;;1.90;1.40;;;11.30;99.90;;;;;;5087199;28;20217;-79
2021/07/20 13:15:35;;;;;;;2.73;1.80;;;11.30;99.90;;;;;;5073608;28;20204;-72
2021/07/20 13:18:04;;;;;;;3.07;2.17;;;11.30;99.90;;;;;;5072176;28;20182;-62
2021/07/20 13:20:34;;;;;;;6.13;2.30;;;11.40;99.90;;;;;;5072728;28;20186;-63